Time;durP1;ratioP1;P1;durP2;ratioP2;P2;SDS_P1;SDS_P2;PMS_P1;PMS_P2;Temp;Humidity;BMP_temperature;BMP_pressure;BME280_temperature;BME280_humidity;BME280_pressure;Samples;Min_cycle;Max_cycle;Signal;HPM_P1;HPM_P2
2023/05/17 00:01:24;;;;;;;16.33;3.67;;;9.30;99.90;;;;;;5087305;28;20069;-57
2023/05/17 00:03:52;;;;;;;21.05;4.00;;;9.30;99.90;;;;;;5086457;28;20452;-59
2023/05/17 00:06:19;;;;;;;18.65;3.92;;;9.20;99.90;;;;;;5069173;28;20044;-54
2023/05/17 00:08:44;;;;;;;23.83;4.55;;;9.20;99.90;;;;;;5086238;28;20044;-53
2023/05/17 00:11:10;;;;;;;21.52;4.13;;;9.10;99.90;;;;;;5086436;28;20969;-56
2023/05/17 00:13:37;;;;;;;16.73;3.50;;;9.00;99.90;;;;;;5086789;28;20044;-60
2023/05/17 00:16:03;;;;;;;15.18;3.85;;;8.90;99.90;;;;;;5086775;28;20051;-58
2023/05/17 00:18:29;;;;;;;18.10;3.75;;;8.90;99.90;;;;;;5067277;28;20044;-53
2023/05/17 00:20:55;;;;;;;23.65;4.43;;;8.80;99.90;;;;;;5085906;28;20052;-58
2023/05/17 00:23:20;;;;;;;20.92;4.00;;;8.70;99.90;;;;;;5087005;28;20048;-58
2023/05/17 00:25:46;;;;;;;16.08;3.50;;;8.70;99.90;;;;;;5086924;28;20091;-59
2023/05/17 00:28:12;;;;;;;16.60;3.95;;;8.70;99.90;;;;;;5086646;28;20573;-59
2023/05/17 00:30:37;;;;;;;15.48;3.92;;;8.70;99.90;;;;;;5085921;28;20051;-57
2023/05/17 00:33:03;;;;;;;21.08;4.30;;;8.70;99.90;;;;;;5085719;28;20082;-58
2023/05/17 00:35:29;;;;;;;17.80;3.67;;;9.00;99.90;;;;;;5086523;28;20040;-58
2023/05/17 00:37:55;;;;;;;17.33;3.55;;;8.80;99.90;;;;;;5086236;28;20051;-58
2023/05/17 00:40:21;;;;;;;18.45;3.88;;;8.80;99.90;;;;;;5086509;28;20052;-54
2023/05/17 00:42:46;;;;;;;17.33;4.20;;;8.80;99.90;;;;;;5088580;28;20043;-58
2023/05/17 00:45:12;;;;;;;19.10;3.78;;;8.80;99.90;;;;;;5090461;28;20097;-58
2023/05/17 00:47:38;;;;;;;24.08;4.35;;;8.80;99.90;;;;;;5090070;28;20032;-57
2023/05/17 00:50:05;;;;;;;19.73;4.00;;;8.70;99.90;;;;;;5090364;28;20398;-54
2023/05/17 00:52:31;;;;;;;24.17;4.35;;;8.70;99.90;;;;;;5089904;28;20047;-58
2023/05/17 00:54:57;;;;;;;20.73;4.05;;;8.70;99.90;;;;;;5090471;28;20430;-58
2023/05/17 00:57:23;;;;;;;28.98;4.65;;;8.70;99.90;;;;;;5090668;28;20044;-59
2023/05/17 00:59:50;;;;;;;22.88;4.15;;;8.60;99.90;;;;;;5090538;28;20040;-58
2023/05/17 01:02:16;;;;;;;19.60;4.22;;;8.60;99.90;;;;;;5089943;28;20724;-56
2023/05/17 01:04:43;;;;;;;26.63;3.97;;;8.60;99.90;;;;;;5089340;28;20048;-59
2023/05/17 01:07:09;;;;;;;22.45;4.20;;;8.60;99.90;;;;;;5090481;28;20048;-58
2023/05/17 01:09:36;;;;;;;21.88;3.92;;;8.60;99.90;;;;;;5089764;28;20491;-58
2023/05/17 01:12:57;;;;;;;19.55;3.95;;;8.50;99.90;;;;;;5090067;28;20040;-52
2023/05/17 01:15:30;;;;;;;17.92;4.07;;;8.50;99.90;;;;;;5007497;28;20518;-58
2023/05/17 01:18:07;;;;;;;20.13;4.00;;;8.50;99.90;;;;;;5006640;28;20045;-58
2023/05/17 01:20:40;;;;;;;19.77;3.90;;;8.40;99.90;;;;;;5065500;28;20089;-55
2023/05/17 01:23:17;;;;;;;18.48;3.70;;;8.40;99.90;;;;;;5089580;28;20457;-59
2023/05/17 01:25:59;;;;;;;19.95;4.03;;;8.40;99.90;;;;;;5089580;28;20044;-55
2023/05/17 01:28:26;;;;;;;24.25;4.00;;;8.40;99.90;;;;;;5090099;28;20395;-59
2023/05/17 01:30:56;;;;;;;23.00;3.95;;;8.30;99.90;;;;;;5089917;28;20469;-57
2023/05/17 01:33:22;;;;;;;30.42;4.55;;;8.30;99.90;;;;;;5088420;28;20131;-58
2023/05/17 01:35:48;;;;;;;19.58;4.13;;;8.30;99.90;;;;;;5089497;28;20047;-56
2023/05/17 01:38:13;;;;;;;16.58;3.53;;;8.30;99.90;;;;;;5089399;28;20095;-58
2023/05/17 01:40:49;;;;;;;20.23;3.85;;;8.20;99.90;;;;;;5089042;28;20040;-58
2023/05/17 01:43:25;;;;;;;20.58;3.90;;;8.20;99.90;;;;;;5089482;28;20124;-57
2023/05/17 01:46:12;;;;;;;21.95;3.47;;;8.20;99.90;;;;;;5089240;28;20130;-58
2023/05/17 01:48:44;;;;;;;19.27;3.30;;;8.20;99.90;;;;;;5088599;28;20513;-54
2023/05/17 01:51:15;;;;;;;20.38;3.70;;;8.10;99.90;;;;;;5089164;28;20051;-56
2023/05/17 01:53:55;;;;;;;23.58;4.13;;;8.10;99.90;;;;;;5088927;28;20048;-57
2023/05/17 01:56:27;;;;;;;21.83;3.80;;;8.10;99.90;;;;;;5089364;28;20047;-57
2023/05/17 01:58:55;;;;;;;20.35;3.67;;;8.10;99.90;;;;;;5089350;28;20505;-58
2023/05/17 02:01:22;;;;;;;20.15;3.58;;;8.20;99.90;;;;;;5088477;28;20059;-58
2023/05/17 02:03:49;;;;;;;15.63;3.50;;;8.20;99.90;;;;;;5087913;28;20079;-58
2023/05/17 02:06:15;;;;;;;21.58;3.25;;;8.10;99.90;;;;;;5089097;28;20464;-57
2023/05/17 02:08:41;;;;;;;19.30;4.10;;;8.40;99.90;;;;;;5088831;28;20075;-56
2023/05/17 02:11:07;;;;;;;19.25;3.50;;;8.60;99.90;;;;;;5088570;28;20036;-58
2023/05/17 02:13:33;;;;;;;18.90;2.95;;;8.20;99.90;;;;;;5070809;28;20044;-55
2023/05/17 02:16:03;;;;;;;15.75;2.95;;;8.20;99.90;;;;;;5088808;28;20040;-58
2023/05/17 02:18:29;;;;;;;18.73;2.65;;;8.20;99.90;;;;;;5088128;28;20127;-58
2023/05/17 02:20:55;;;;;;;16.90;2.90;;;8.50;99.90;;;;;;5088528;28;20082;-58
2023/05/17 02:23:20;;;;;;;16.58;3.35;;;8.10;99.90;;;;;;5088698;28;20095;-59
2023/05/17 02:25:46;;;;;;;15.35;2.63;;;8.10;99.90;;;;;;5088783;28;20047;-55
2023/05/17 02:28:12;;;;;;;18.60;3.28;;;8.10;99.90;;;;;;5088410;28;20082;-58
2023/05/17 02:30:40;;;;;;;16.70;2.90;;;8.10;99.90;;;;;;5088564;28;20047;-58
2023/05/17 02:33:07;;;;;;;15.27;2.78;;;8.00;99.90;;;;;;5087346;28;20036;-58
2023/05/17 02:35:33;;;;;;;14.55;2.85;;;8.10;99.90;;;;;;5088205;28;20048;-57
2023/05/17 02:37:59;;;;;;;16.15;3.55;;;8.10;99.90;;;;;;5088898;28;20105;-59
2023/05/17 02:40:24;;;;;;;15.55;2.63;;;8.20;99.90;;;;;;5088464;28;20040;-58
2023/05/17 02:42:50;;;;;;;12.80;2.72;;;8.20;99.90;;;;;;5087791;28;20043;-59
2023/05/17 02:45:16;;;;;;;15.95;2.70;;;8.20;99.90;;;;;;5087938;28;20101;-57
2023/05/17 02:47:42;;;;;;;14.18;2.92;;;8.20;99.90;;;;;;5087669;28;20044;-58
2023/05/17 02:50:08;;;;;;;19.48;3.28;;;8.30;99.90;;;;;;5088464;28;20483;-56
2023/05/17 02:52:33;;;;;;;12.15;2.63;;;8.30;99.90;;;;;;5087784;28;20089;-50
2023/05/17 02:54:59;;;;;;;13.48;3.15;;;8.20;99.90;;;;;;5088420;28;20475;-57
2023/05/17 02:57:25;;;;;;;18.08;3.00;;;8.20;99.90;;;;;;5087899;28;20063;-55
2023/05/17 02:59:50;;;;;;;18.02;2.30;;;8.30;99.90;;;;;;5087946;28;20092;-58
2023/05/17 03:02:16;;;;;;;13.32;2.60;;;8.20;99.90;;;;;;5069115;28;20128;-56
2023/05/17 03:04:42;;;;;;;15.10;2.83;;;8.20;99.90;;;;;;5086845;28;20083;-57
2023/05/17 03:07:07;;;;;;;15.00;2.83;;;8.30;99.90;;;;;;5087693;28;20483;-57
2023/05/17 03:09:33;;;;;;;13.93;2.63;;;8.30;99.90;;;;;;5087699;28;20044;-57
2023/05/17 03:11:59;;;;;;;11.88;3.08;;;8.40;99.90;;;;;;5070258;28;20066;-58
2023/05/17 03:14:25;;;;;;;12.98;2.80;;;8.30;99.90;;;;;;5087707;28;20044;-56
2023/05/17 03:16:51;;;;;;;13.95;2.45;;;8.30;99.90;;;;;;5087894;28;20512;-59
2023/05/17 03:19:16;;;;;;;10.52;2.22;;;8.30;99.90;;;;;;5086648;28;20036;-56
2023/05/17 03:21:43;;;;;;;11.30;2.38;;;8.50;99.90;;;;;;5069298;28;20099;-59
2023/05/17 03:24:09;;;;;;;13.50;2.30;;;8.30;99.90;;;;;;5087208;28;20414;-58
2023/05/17 03:26:34;;;;;;;10.23;2.15;;;8.40;99.90;;;;;;5086941;28;20075;-59
2023/05/17 03:29:00;;;;;;;15.73;3.28;;;8.30;99.90;;;;;;5087442;28;20465;-57
2023/05/17 03:31:26;;;;;;;13.50;2.58;;;8.40;99.90;;;;;;5087775;28;20065;-58
2023/05/17 03:33:52;;;;;;;16.80;2.67;;;8.50;99.90;;;;;;5086651;28;20085;-54
2023/05/17 03:36:17;;;;;;;15.57;2.17;;;8.50;99.90;;;;;;5086855;28;20510;-51
2023/05/17 03:38:43;;;;;;;12.68;2.20;;;8.30;99.90;;;;;;5086919;28;20502;-59
2023/05/17 03:41:10;;;;;;;11.70;2.55;;;8.30;99.90;;;;;;5086668;28;20064;-57
2023/05/17 03:43:36;;;;;;;16.55;2.47;;;8.30;99.90;;;;;;5086867;28;20445;-58
2023/05/17 03:46:02;;;;;;;11.40;2.63;;;8.40;99.90;;;;;;5087653;28;20093;-57
2023/05/17 03:48:27;;;;;;;10.75;1.88;;;8.40;99.90;;;;;;5086147;28;20107;-58
2023/05/17 03:50:53;;;;;;;10.20;2.08;;;8.40;99.90;;;;;;5086999;28;20047;-59
2023/05/17 03:53:19;;;;;;;11.80;2.25;;;8.40;99.90;;;;;;5086711;28;20052;-55
2023/05/17 03:55:45;;;;;;;9.93;1.85;;;8.40;99.90;;;;;;5087017;28;20048;-57
2023/05/17 03:58:10;;;;;;;11.52;2.08;;;8.50;99.90;;;;;;5068333;28;20486;-55
2023/05/17 04:00:36;;;;;;;10.02;1.63;;;8.50;99.90;;;;;;5087092;28;20048;-59
2023/05/17 04:03:02;;;;;;;11.45;2.10;;;8.50;99.90;;;;;;5086363;28;20090;-58
2023/05/17 04:05:27;;;;;;;10.73;1.70;;;8.50;99.90;;;;;;5086630;28;20052;-58
2023/05/17 04:07:53;;;;;;;9.70;2.25;;;8.50;99.90;;;;;;5086345;28;20028;-58
2023/05/17 04:10:19;;;;;;;11.63;2.15;;;8.50;99.90;;;;;;5086693;28;20132;-57
2023/05/17 04:12:45;;;;;;;11.85;2.08;;;8.80;99.90;;;;;;5086462;28;20483;-57
2023/05/17 04:15:10;;;;;;;9.65;2.17;;;8.70;99.90;;;;;;5086588;28;20445;-54
2023/05/17 04:17:36;;;;;;;13.23;2.03;;;8.70;99.90;;;;;;5086124;28;20036;-53
2023/05/17 04:20:05;;;;;;;13.35;2.20;;;8.70;99.90;;;;;;5086939;28;20048;-57
2023/05/17 04:22:31;;;;;;;13.57;2.58;;;8.70;99.90;;;;;;5086284;28;20051;-57
2023/05/17 04:24:57;;;;;;;15.55;2.45;;;8.70;99.90;;;;;;5060598;28;20839;-58
2023/05/17 04:27:22;;;;;;;11.00;2.10;;;8.80;99.90;;;;;;5048423;28;20045;-59
2023/05/17 04:29:48;;;;;;;11.48;2.22;;;8.80;99.90;;;;;;5066409;28;20309;-59
2023/05/17 04:32:13;;;;;;;10.07;1.90;;;8.90;99.90;;;;;;5065159;28;20123;-57
2023/05/17 04:34:39;;;;;;;10.32;2.15;;;8.80;99.90;;;;;;5048598;28;20179;-58
2023/05/17 04:37:05;;;;;;;8.68;1.60;;;9.10;99.90;;;;;;5066461;28;20044;-58
2023/05/17 04:39:31;;;;;;;11.27;1.75;;;8.90;99.90;;;;;;5066429;28;20041;-58
2023/05/17 04:41:57;;;;;;;13.88;2.20;;;9.00;99.90;;;;;;5047910;28;20059;-54
2023/05/17 04:44:22;;;;;;;15.35;2.90;;;9.00;99.90;;;;;;5066352;28;20127;-57
2023/05/17 04:46:49;;;;;;;14.95;2.45;;;9.10;99.90;;;;;;5065698;28;20044;-57
2023/05/17 04:49:14;;;;;;;11.73;1.98;;;9.10;99.90;;;;;;5065156;28;20036;-57
2023/05/17 04:51:40;;;;;;;10.05;2.22;;;9.20;99.90;;;;;;5066085;28;20040;-57
2023/05/17 04:54:07;;;;;;;6.88;2.10;;;9.20;99.90;;;;;;5066324;28;20041;-58
2023/05/17 04:56:35;;;;;;;16.15;2.38;;;9.30;99.90;;;;;;5065852;28;20384;-59
2023/05/17 04:59:01;;;;;;;9.20;2.00;;;9.20;99.90;;;;;;5065920;28;20182;-58
2023/05/17 05:01:30;;;;;;;15.90;2.58;;;9.40;99.90;;;;;;5066070;28;20084;-57
2023/05/17 05:03:57;;;;;;;12.45;2.15;;;9.40;99.90;;;;;;5064942;28;20374;-56
2023/05/17 05:06:22;;;;;;;12.00;2.38;;;9.40;99.90;;;;;;5065718;28;20083;-58
2023/05/17 05:08:48;;;;;;;13.63;2.40;;;9.40;99.90;;;;;;5065789;28;20503;-58
2023/05/17 05:11:14;;;;;;;9.18;1.95;;;9.40;99.90;;;;;;5065606;28;20041;-58
2023/05/17 05:13:41;;;;;;;11.23;2.25;;;9.40;99.90;;;;;;5066472;28;20039;-54
2023/05/17 05:16:07;;;;;;;10.50;2.05;;;9.20;99.90;;;;;;5066306;28;20052;-56
2023/05/17 05:18:33;;;;;;;14.40;2.47;;;9.20;99.90;;;;;;5064486;28;20080;-54
2023/05/17 05:20:59;;;;;;;12.88;2.70;;;9.20;99.90;;;;;;5065712;28;20099;-58
2023/05/17 05:23:24;;;;;;;11.35;2.63;;;9.10;99.90;;;;;;5065542;28;20048;-56
2023/05/17 05:25:50;;;;;;;11.07;2.38;;;9.10;99.90;;;;;;5065782;28;20052;-57
2023/05/17 05:28:16;;;;;;;14.82;2.78;;;9.00;99.90;;;;;;5066625;28;20036;-57
2023/05/17 05:30:41;;;;;;;15.77;3.20;;;9.10;99.90;;;;;;5069314;28;20075;-57
2023/05/17 05:33:07;;;;;;;14.60;2.38;;;9.10;99.90;;;;;;5069048;28;20045;-55
2023/05/17 05:35:33;;;;;;;14.70;2.25;;;9.10;99.90;;;;;;5068772;28;20044;-57
2023/05/17 05:37:59;;;;;;;13.48;2.40;;;9.20;99.90;;;;;;5069120;28;20123;-56
2023/05/17 05:40:25;;;;;;;13.18;2.85;;;9.10;99.90;;;;;;5069298;28;20049;-57
2023/05/17 05:42:51;;;;;;;14.45;2.25;;;9.10;99.90;;;;;;5068579;28;20057;-58
2023/05/17 05:45:17;;;;;;;11.30;2.20;;;9.10;99.90;;;;;;5069173;28;20053;-57
2023/05/17 05:47:42;;;;;;;11.02;2.35;;;9.20;99.90;;;;;;5050228;28;20552;-56
2023/05/17 05:50:09;;;;;;;14.13;2.83;;;9.20;99.90;;;;;;5051037;28;20057;-57
2023/05/17 05:52:34;;;;;;;14.55;2.45;;;9.20;99.90;;;;;;5068502;28;20040;-58
2023/05/17 05:55:00;;;;;;;12.30;2.33;;;9.10;99.90;;;;;;5068897;28;20047;-58
2023/05/17 05:57:26;;;;;;;14.48;2.28;;;9.10;99.90;;;;;;5068606;28;20041;-57
2023/05/17 05:59:51;;;;;;;10.35;2.30;;;9.20;99.90;;;;;;5068323;28;20139;-56
2023/05/17 06:02:18;;;;;;;11.60;2.22;;;9.10;99.90;;;;;;5068158;28;20041;-57
2023/05/17 06:04:46;;;;;;;13.52;2.75;;;9.00;99.90;;;;;;5069075;28;20044;-56
2023/05/17 06:07:15;;;;;;;11.13;2.30;;;9.10;99.90;;;;;;5068560;28;20110;-57
2023/05/17 06:09:41;;;;;;;11.68;2.70;;;9.10;99.90;;;;;;5069246;28;20037;-58
2023/05/17 06:12:06;;;;;;;11.57;2.05;;;9.20;99.90;;;;;;5068590;28;20471;-57
2023/05/17 06:14:32;;;;;;;12.88;2.58;;;9.20;99.90;;;;;;5068071;28;20094;-58
2023/05/17 06:16:58;;;;;;;12.15;2.05;;;9.20;99.90;;;;;;5067742;28;20041;-58
2023/05/17 06:19:23;;;;;;;12.93;2.47;;;9.40;99.90;;;;;;5068296;28;20129;-58
2023/05/17 06:21:49;;;;;;;14.85;2.92;;;9.50;99.90;;;;;;5069928;28;20057;-53
2023/05/17 06:24:15;;;;;;;11.10;2.45;;;9.70;99.90;;;;;;5088413;28;20539;-58
2023/05/17 06:26:42;;;;;;;14.93;3.10;;;9.90;99.90;;;;;;5088920;28;20048;-57
2023/05/17 06:29:08;;;;;;;19.30;3.30;;;9.90;99.90;;;;;;5088581;28;20062;-55
2023/05/17 06:31:34;;;;;;;12.13;2.30;;;9.90;99.90;;;;;;5070285;28;20127;-57
2023/05/17 06:34:00;;;;;;;13.07;2.45;;;9.90;99.90;;;;;;5087742;28;20036;-53
2023/05/17 06:36:25;;;;;;;14.13;2.67;;;9.90;99.90;;;;;;5088395;28;20733;-57
2023/05/17 06:38:51;;;;;;;14.52;2.42;;;9.80;99.90;;;;;;5087744;28;20083;-56
2023/05/17 06:41:17;;;;;;;14.52;2.75;;;9.90;99.90;;;;;;5087524;28;20082;-58
2023/05/17 06:43:42;;;;;;;16.45;2.75;;;9.90;99.90;;;;;;5088420;28;20524;-58
2023/05/17 06:46:08;;;;;;;15.32;2.92;;;9.90;99.90;;;;;;5088017;28;20574;-58
2023/05/17 06:48:33;;;;;;;14.07;2.95;;;9.80;99.90;;;;;;5086916;28;20054;-58
2023/05/17 06:50:59;;;;;;;16.00;2.83;;;9.90;99.90;;;;;;5087819;28;20079;-51
2023/05/17 06:53:26;;;;;;;15.07;2.97;;;9.90;99.90;;;;;;5088288;28;20115;-58
2023/05/17 06:55:51;;;;;;;17.15;2.85;;;9.80;99.90;;;;;;5087558;28;20047;-56
2023/05/17 06:58:17;;;;;;;14.30;3.17;;;9.80;99.90;;;;;;5088103;28;20502;-57
2023/05/17 07:00:43;;;;;;;17.38;2.97;;;9.80;99.90;;;;;;5088190;28;20078;-58
2023/05/17 07:03:08;;;;;;;16.13;3.15;;;9.80;99.90;;;;;;5086807;28;20421;-58
2023/05/17 07:05:35;;;;;;;15.50;2.80;;;9.90;99.90;;;;;;5087560;28;20193;-61
2023/05/17 07:08:00;;;;;;;15.27;2.85;;;10.10;99.90;;;;;;5087807;28;20438;-59
2023/05/17 07:10:26;;;;;;;15.73;2.88;;;10.40;99.90;;;;;;5087528;28;20063;-52
2023/05/17 07:12:52;;;;;;;13.70;2.53;;;10.80;99.90;;;;;;5087578;28;20103;-59
2023/05/17 07:15:18;;;;;;;14.13;1.98;;;11.00;99.90;;;;;;5087514;28;20429;-59
2023/05/17 07:17:43;;;;;;;13.90;2.55;;;11.60;99.40;;;;;;5087453;28;20115;-59
2023/05/17 07:20:09;;;;;;;13.23;2.10;;;11.80;97.90;;;;;;5086643;28;20055;-58
2023/05/17 07:22:36;;;;;;;10.20;2.25;;;11.70;97.50;;;;;;5087631;28;20051;-58
2023/05/17 07:25:02;;;;;;;11.73;2.50;;;11.80;97.00;;;;;;5087430;28;20133;-58
2023/05/17 07:27:27;;;;;;;7.68;1.95;;;12.40;96.20;;;;;;5086971;28;20063;-59
2023/05/17 07:29:53;;;;;;;6.90;1.85;;;12.50;95.00;;;;;;5087822;28;20040;-59
2023/05/17 07:32:19;;;;;;;11.00;2.15;;;12.40;95.20;;;;;;5086437;28;20432;-59
2023/05/17 07:34:45;;;;;;;13.98;2.42;;;12.40;95.30;;;;;;5087690;28;20044;-52
2023/05/17 07:37:10;;;;;;;10.45;2.00;;;12.60;94.90;;;;;;5069162;28;20044;-57
2023/05/17 07:39:36;;;;;;;10.52;2.20;;;12.50;94.70;;;;;;5087210;28;20448;-58
2023/05/17 07:42:02;;;;;;;12.35;2.30;;;12.40;94.90;;;;;;5087110;28;20087;-56
2023/05/17 07:44:28;;;;;;;10.77;2.30;;;12.10;95.00;;;;;;5076300;28;20048;-58
2023/05/17 07:46:53;;;;;;;14.52;2.20;;;11.90;94.90;;;;;;5084156;28;20151;-56
2023/05/17 07:49:19;;;;;;;10.40;2.20;;;11.70;94.70;;;;;;5068084;28;20040;-59
2023/05/17 07:51:45;;;;;;;15.95;2.38;;;11.50;95.10;;;;;;5073493;28;20083;-59
2023/05/17 07:54:21;;;;;;;11.43;2.10;;;11.40;95.20;;;;;;5066303;28;20047;-57
2023/05/17 07:56:47;;;;;;;9.23;2.28;;;11.30;95.20;;;;;;5066546;28;20119;-59
2023/05/17 07:59:12;;;;;;;11.95;2.22;;;11.30;95.30;;;;;;5065742;28;20119;-59
2023/05/17 08:01:38;;;;;;;9.52;1.77;;;11.70;95.50;;;;;;5065250;28;20036;-58
2023/05/17 08:04:03;;;;;;;12.85;2.05;;;11.70;95.30;;;;;;5086172;28;20507;-59
2023/05/17 08:06:29;;;;;;;7.97;1.90;;;11.90;94.80;;;;;;5086072;28;20036;-56
2023/05/17 08:08:55;;;;;;;9.27;2.05;;;11.80;94.40;;;;;;5059177;28;20040;-59
2023/05/17 08:11:20;;;;;;;7.78;1.83;;;11.80;94.70;;;;;;5048121;28;20084;-58
2023/05/17 08:13:46;;;;;;;11.65;2.28;;;11.90;94.70;;;;;;5066190;28;20115;-57
2023/05/17 08:16:11;;;;;;;10.38;2.13;;;11.90;94.60;;;;;;5047865;28;20058;-59
2023/05/17 08:18:37;;;;;;;12.43;2.20;;;11.80;93.80;;;;;;5065141;28;20130;-59
2023/05/17 08:21:03;;;;;;;16.58;2.63;;;11.80;94.20;;;;;;5065880;28;20052;-59
2023/05/17 08:23:29;;;;;;;8.93;2.05;;;11.80;94.10;;;;;;5065527;28;20063;-58
2023/05/17 08:25:55;;;;;;;8.38;1.85;;;11.80;94.20;;;;;;5065453;28;20053;-59
2023/05/17 08:28:21;;;;;;;7.95;2.17;;;11.90;94.00;;;;;;5066684;28;20086;-60
2023/05/17 08:30:46;;;;;;;10.23;2.10;;;12.00;93.80;;;;;;5066102;28;20040;-60
2023/05/17 08:33:12;;;;;;;9.27;2.15;;;12.20;93.50;;;;;;5064338;28;20086;-60
2023/05/17 08:35:38;;;;;;;12.60;2.05;;;12.20;93.50;;;;;;5065848;28;20105;-60
2023/05/17 08:38:03;;;;;;;10.25;1.98;;;12.40;93.90;;;;;;5065988;28;20036;-58
2023/05/17 08:40:29;;;;;;;9.15;2.38;;;12.70;94.10;;;;;;5065673;28;20041;-57
2023/05/17 08:42:55;;;;;;;7.75;1.60;;;13.20;94.10;;;;;;5066061;28;20045;-58
2023/05/17 08:45:21;;;;;;;12.50;1.67;;;13.50;93.30;;;;;;5066568;28;20127;-59
2023/05/17 08:47:47;;;;;;;6.93;1.63;;;13.70;93.00;;;;;;5065893;28;20073;-58
2023/05/17 08:50:13;;;;;;;6.25;1.58;;;14.00;92.70;;;;;;5066024;28;20147;-59
2023/05/17 08:52:41;;;;;;;9.55;1.63;;;14.20;92.30;;;;;;5065769;28;20123;-61
2023/05/17 08:55:07;;;;;;;9.82;1.65;;;14.40;92.10;;;;;;5066104;28;20127;-59
2023/05/17 08:57:36;;;;;;;7.38;1.60;;;14.30;92.20;;;;;;5065826;28;20044;-55
2023/05/17 09:00:11;;;;;;;5.55;1.60;;;14.10;91.70;;;;;;5066042;28;20127;-55
2023/05/17 09:02:37;;;;;;;;;;;13.90;91.70;;;;;;5065875;28;20029;-55
2023/05/17 09:05:04;;;;;;;9.25;2.05;;;13.50;91.30;;;;;;5069937;28;19920;-54
2023/05/17 09:07:29;;;;;;;9.10;1.77;;;13.10;92.20;;;;;;5069859;28;20399;-56
2023/05/17 09:09:55;;;;;;;9.25;1.80;;;12.80;92.10;;;;;;5069952;28;20056;-55
2023/05/17 09:12:21;;;;;;;8.10;1.98;;;12.60;92.40;;;;;;5069684;28;20087;-54
2023/05/17 09:14:47;;;;;;;30.05;3.40;;;12.40;92.60;;;;;;5069643;28;20039;-52
2023/05/17 09:17:17;;;;;;;13.13;1.80;;;12.40;92.90;;;;;;5068800;28;20044;-55
2023/05/17 09:19:45;;;;;;;8.15;2.00;;;12.30;92.60;;;;;;5069050;28;20047;-55
2023/05/17 09:22:17;;;;;;;7.45;1.73;;;12.30;92.90;;;;;;5069644;28;20045;-55
2023/05/17 09:24:43;;;;;;;8.52;1.85;;;12.30;92.90;;;;;;5069551;28;20364;-55
2023/05/17 09:27:17;;;;;;;10.27;2.00;;;12.30;92.80;;;;;;5069117;28;20049;-55
2023/05/17 09:29:46;;;;;;;7.47;1.95;;;12.20;93.20;;;;;;5069668;28;20036;-54
2023/05/17 09:32:17;;;;;;;8.65;1.70;;;12.30;92.90;;;;;;5068452;28;20340;-55
2023/05/17 09:34:44;;;;;;;10.15;1.85;;;12.30;93.10;;;;;;5051558;28;20044;-54
2023/05/17 09:37:15;;;;;;;7.68;1.58;;;12.20;93.00;;;;;;5069220;28;20463;-55
2023/05/17 09:39:41;;;;;;;12.43;2.33;;;12.20;93.50;;;;;;5068820;28;20098;-55
2023/05/17 09:42:08;;;;;;;15.60;2.22;;;12.30;93.70;;;;;;5069452;28;20123;-55
2023/05/17 09:44:47;;;;;;;10.98;2.50;;;12.30;93.60;;;;;;5069285;28;20082;-54
2023/05/17 09:47:42;;;;;;;10.70;1.80;;;12.30;93.90;;;;;;5067801;28;20372;-55
2023/05/17 09:50:20;;;;;;;10.90;1.92;;;12.40;94.50;;;;;;5055480;28;20056;-52
2023/05/17 09:52:46;;;;;;;9.52;2.00;;;12.60;94.30;;;;;;5069075;28;20547;-54
2023/05/17 09:55:12;;;;;;;6.03;1.60;;;12.80;94.10;;;;;;5069131;28;20040;-55
2023/05/17 09:57:40;;;;;;;8.55;1.90;;;13.00;94.10;;;;;;5050568;28;20037;-55
2023/05/17 10:00:10;;;;;;;11.23;1.77;;;13.20;93.90;;;;;;5068861;28;20411;-56
2023/05/17 10:02:37;;;;;;;12.82;1.90;;;13.30;93.40;;;;;;5067932;28;20044;-55
2023/05/17 10:05:07;;;;;;;9.57;2.45;;;13.20;92.90;;;;;;5068903;28;20036;-56
2023/05/17 10:07:33;;;;;;;10.48;1.70;;;13.10;93.00;;;;;;5068705;28;20106;-55
2023/05/17 10:10:00;;;;;;;8.00;2.13;;;13.20;93.20;;;;;;5050593;28;20067;-55
2023/05/17 10:12:31;;;;;;;8.32;1.80;;;13.40;93.30;;;;;;5068779;28;20417;-56
2023/05/17 10:14:59;;;;;;;7.50;1.73;;;13.70;93.20;;;;;;5068438;28;20041;-56
2023/05/17 10:17:28;;;;;;;12.23;2.03;;;13.80;92.50;;;;;;5050127;28;20061;-55
2023/05/17 10:19:54;;;;;;;8.13;1.83;;;13.80;91.90;;;;;;5050101;28;20064;-54
2023/05/17 10:22:21;;;;;;;7.15;1.98;;;13.70;91.90;;;;;;5068573;28;20068;-55
2023/05/17 10:24:47;;;;;;;10.63;1.80;;;13.70;91.90;;;;;;5068408;28;20047;-55
2023/05/17 10:27:14;;;;;;;8.43;1.80;;;13.80;91.80;;;;;;5068009;28;20060;-55
2023/05/17 10:29:40;;;;;;;8.25;1.63;;;13.90;91.60;;;;;;5068817;28;20081;-56
2023/05/17 10:32:07;;;;;;;7.57;2.00;;;14.10;91.60;;;;;;5067490;28;20162;-58
2023/05/17 10:34:37;;;;;;;10.05;1.80;;;14.20;90.80;;;;;;5067981;28;20045;-52
2023/05/17 10:37:04;;;;;;;10.27;2.15;;;14.00;91.00;;;;;;5067937;28;20470;-55
2023/05/17 10:39:33;;;;;;;8.90;2.05;;;13.60;92.00;;;;;;5068263;28;20404;-54
2023/05/17 10:42:02;;;;;;;10.32;1.70;;;13.30;92.30;;;;;;5067398;28;20044;-55
2023/05/17 10:44:32;;;;;;;7.43;1.67;;;13.10;92.90;;;;;;5050709;28;20189;-55
2023/05/17 10:46:59;;;;;;;11.60;2.08;;;13.00;93.30;;;;;;5067343;28;20054;-55
2023/05/17 10:49:28;;;;;;;8.88;1.80;;;13.10;93.50;;;;;;5068660;28;20117;-60
2023/05/17 10:51:55;;;;;;;11.77;1.80;;;13.40;94.30;;;;;;5068801;28;20045;-55
2023/05/17 10:54:38;;;;;;;11.25;2.20;;;13.70;93.50;;;;;;5068941;28;20045;-54
2023/05/17 10:57:05;;;;;;;8.93;1.98;;;13.80;92.60;;;;;;5067792;28;20052;-52
2023/05/17 10:59:32;;;;;;;9.50;2.30;;;13.60;93.30;;;;;;5067629;28;20052;-53
2023/05/17 11:02:03;;;;;;;8.10;1.63;;;13.60;93.60;;;;;;5066850;28;20049;-51
2023/05/17 11:04:38;;;;;;;10.45;2.13;;;13.50;93.70;;;;;;5067774;28;20055;-53
2023/05/17 11:07:17;;;;;;;9.55;1.88;;;13.50;94.10;;;;;;5067080;28;20404;-56
2023/05/17 11:09:44;;;;;;;12.90;2.03;;;13.40;93.70;;;;;;5067578;28;20049;-59
2023/05/17 11:12:11;;;;;;;9.40;2.15;;;13.30;94.10;;;;;;5067789;28;20053;-55
2023/05/17 11:14:52;;;;;;;11.48;2.05;;;13.30;94.30;;;;;;5066977;28;20093;-63
2023/05/17 11:17:23;;;;;;;10.77;1.98;;;13.30;94.10;;;;;;5064999;28;20499;-63
2023/05/17 11:20:04;;;;;;;7.68;1.80;;;13.30;94.00;;;;;;5067099;28;20047;-63
2023/05/17 11:22:39;;;;;;;8.13;1.80;;;13.40;93.60;;;;;;5049517;28;20069;-62
2023/05/17 11:25:12;;;;;;;7.88;1.83;;;13.50;93.30;;;;;;5066792;28;20468;-61
2023/05/17 11:27:45;;;;;;;9.10;1.48;;;13.50;93.50;;;;;;5048879;28;20044;-63
2023/05/17 11:30:22;;;;;;;6.28;1.88;;;13.70;93.30;;;;;;5048970;28;20068;-61
2023/05/17 11:32:53;;;;;;;4.75;1.25;;;13.80;93.00;;;;;;5066064;28;20446;-61
2023/05/17 11:35:25;;;;;;;10.52;1.98;;;13.90;91.40;;;;;;5048893;28;20044;-61
2023/05/17 11:37:52;;;;;;;6.40;1.67;;;13.80;91.60;;;;;;5048809;28;20456;-61
2023/05/17 11:40:27;;;;;;;7.35;1.77;;;13.70;91.30;;;;;;5066738;28;20515;-62
2023/05/17 11:43:09;;;;;;;;;;;13.80;90.80;;;;;;5067115;28;20051;-62
2023/05/17 11:45:52;;;;;;;7.00;2.00;;;13.90;90.30;;;;;;5066620;28;20307;-62
2023/05/17 11:48:20;;;;;;;4.55;1.77;;;13.90;91.10;;;;;;5066717;28;20044;-59
2023/05/17 11:50:48;;;;;;;6.65;1.67;;;13.90;90.40;;;;;;5067011;28;20055;-60
2023/05/17 11:53:14;;;;;;;6.82;1.58;;;14.00;90.70;;;;;;5069020;28;20387;-62
2023/05/17 11:55:42;;;;;;;6.10;1.40;;;14.40;90.20;;;;;;5086718;28;20048;-62
2023/05/17 11:58:09;;;;;;;9.43;1.98;;;14.60;90.40;;;;;;5068099;28;20043;-63
2023/05/17 12:00:41;;;;;;;8.98;2.20;;;14.60;91.20;;;;;;5086521;28;20048;-62
2023/05/17 12:03:16;;;;;;;9.13;2.10;;;14.50;91.70;;;;;;5085925;28;20098;-61
2023/05/17 12:05:42;;;;;;;12.75;2.72;;;14.40;92.00;;;;;;5086414;28;20052;-57
2023/05/17 12:08:08;;;;;;;7.95;1.85;;;14.40;92.10;;;;;;5086543;28;20044;-58
2023/05/17 12:10:34;;;;;;;7.38;1.70;;;14.40;92.40;;;;;;5088011;28;20055;-55
2023/05/17 12:12:59;;;;;;;8.13;1.88;;;14.50;92.30;;;;;;5086830;28;20055;-54
2023/05/17 12:15:27;;;;;;;7.05;1.88;;;14.50;92.20;;;;;;5051747;28;20092;-54
2023/05/17 12:17:54;;;;;;;10.25;1.67;;;14.40;91.60;;;;;;5085765;28;20044;-54
2023/05/17 12:20:19;;;;;;;10.02;1.75;;;14.20;91.50;;;;;;5085514;28;20070;-52
2023/05/17 12:22:53;;;;;;;10.55;2.38;;;14.10;91.20;;;;;;5086591;28;20044;-55
2023/05/17 12:25:22;;;;;;;8.52;1.77;;;14.10;90.60;;;;;;5086151;28;20040;-55
2023/05/17 12:27:49;;;;;;;6.47;1.73;;;14.00;91.00;;;;;;5086456;28;20052;-52
2023/05/17 12:30:15;;;;;;;14.65;2.47;;;13.90;91.00;;;;;;5086515;28;20067;-54
2023/05/17 12:32:41;;;;;;;11.75;2.10;;;13.90;90.70;;;;;;5085616;28;20044;-56
2023/05/17 12:35:07;;;;;;;9.07;2.05;;;13.90;91.20;;;;;;5086376;28;20483;-57
2023/05/17 12:37:33;;;;;;;10.13;2.13;;;14.10;91.60;;;;;;5087342;28;20123;-56
2023/05/17 12:40:02;;;;;;;11.77;2.10;;;14.20;91.80;;;;;;5090597;28;20531;-55
2023/05/17 12:42:28;;;;;;;12.07;2.17;;;14.30;92.00;;;;;;5090390;28;20391;-57
2023/05/17 12:44:53;;;;;;;9.15;2.22;;;14.50;92.00;;;;;;5090518;28;20119;-54
2023/05/17 12:47:19;;;;;;;8.30;2.00;;;14.70;92.30;;;;;;5089614;28;20052;-58